Time;durP1;ratioP1;P1;durP2;ratioP2;P2;SDS_P1;SDS_P2;PMS_P1;PMS_P2;Temp;Humidity;BMP_temperature;BMP_pressure;BME280_temperature;BME280_humidity;BME280_pressure;Samples;Min_cycle;Max_cycle;Signal;HPM_P1;HPM_P2
2022/02/09 07:19:09;;;;;;;7.95;5.47;;;;;;;-0.10;77.38;99178.88;5003724;28;20104;-70
2022/02/09 07:21:37;;;;;;;4.90;4.50;;;;;;;-0.04;76.99;99177.94;4988361;28;20058;-68
2022/02/09 07:24:04;;;;;;;3.03;2.83;;;;;;;-0.13;76.79;99178.97;5000269;28;20050;-69
2022/02/09 07:26:47;;;;;;;5.60;4.80;;;;;;;-0.05;77.11;99176.22;4999688;28;20072;-69
2022/02/09 07:29:17;;;;;;;4.68;4.35;;;;;;;0.15;76.05;99183.47;5011408;28;20140;-69
2022/02/09 07:31:43;;;;;;;4.75;4.35;;;;;;;0.24;75.72;99188.38;5008653;28;20053;-69
2022/02/09 07:34:10;;;;;;;4.88;4.00;;;;;;;0.39;75.47;99193.16;5010695;28;20133;-69
2022/02/09 07:36:37;;;;;;;6.47;5.05;;;;;;;0.65;74.62;99192.47;5009902;28;20100;-68
2022/02/09 07:39:06;;;;;;;6.10;5.55;;;;;;;0.67;74.25;99183.84;5010158;28;20045;-68
2022/02/09 07:41:34;;;;;;;6.47;4.57;;;;;;;0.59;74.59;99190.91;4991982;28;20641;-68
2022/02/09 07:44:15;;;;;;;4.75;4.35;;;;;;;0.81;74.37;99197.19;4992496;28;20585;-69
2022/02/09 07:49:38;;;;;;;8.00;4.70;;;;;;;1.22;72.19;99187.50;5029547;28;20049;-69
2022/02/09 07:52:21;;;;;;;5.88;4.72;;;;;;;1.91;69.50;99190.59;5029659;28;20061;-69
2022/02/09 07:54:47;;;;;;;9.85;4.68;;;;;;;1.97;68.94;99194.69;5029456;28;20061;-69
2022/02/09 07:57:13;;;;;;;12.55;8.07;;;;;;;3.02;65.46;99192.91;5029486;28;20095;-69
2022/02/09 07:59:39;;;;;;;10.70;5.45;;;;;;;3.88;64.10;99194.03;5028918;28;20049;-69
2022/02/09 08:02:04;;;;;;;4.82;4.43;;;;;;;5.83;56.33;99176.16;5029558;28;20056;-70
2022/02/09 08:04:30;;;;;;;5.30;4.80;;;;;;;6.02;55.54;99177.84;5011719;28;20453;-71
2022/02/09 08:06:57;;;;;;;7.45;5.00;;;;;;;7.01;51.71;99176.41;5002515;28;20057;-70
2022/02/09 08:09:39;;;;;;;9.02;4.68;;;;;;;9.13;46.32;99164.50;4991862;28;20091;-71
2022/02/09 08:20:43;;;;;;;4.85;4.45;;;;;;;9.29;43.05;99175.66;4988150;28;20050;-71
2022/02/09 08:23:39;;;;;;;4.60;4.20;;;;;;;10.07;42.18;99176.03;4998126;28;20045;-70
2022/02/09 08:29:02;;;;;;;4.97;4.47;;;;;;;8.36;45.04;99187.28;5009258;28;20046;-69
2022/02/09 08:32:35;;;;;;;9.55;4.88;;;;;;;9.52;42.59;99176.06;5001795;28;20052;-72
2022/02/09 08:34:14;;;;;;;5.43;4.40;;;;;;;9.68;41.87;99176.78;5021425;28;20091;-70
2022/02/09 08:36:41;;;;;;;4.85;4.38;;;;;;;8.49;44.85;99182.22;5025976;28;20588;-69
2022/02/09 08:39:07;;;;;;;4.72;4.32;;;;;;;-142.02;100.00;61695.09;5026676;28;20069;-69
2022/02/09 08:41:34;;;;;;;4.93;4.03;;;;;;;-142.02;100.00;61695.09;5027323;28;20057;-69
2022/02/09 08:44:00;;;;;;;6.25;4.50;;;;;;;-142.02;100.00;61695.09;5009845;28;20740;-69
2022/02/09 08:46:26;;;;;;;4.97;4.47;;;;;;;9.76;41.54;99171.91;5027170;28;20132;-69
2022/02/09 08:48:52;;;;;;;4.80;4.30;;;;;;;9.55;42.45;99168.03;5027833;28;20049;-69
2022/02/09 08:51:20;;;;;;;4.43;3.55;;;;;;;9.16;41.74;99174.72;5027697;28;20602;-69
2022/02/09 08:53:46;;;;;;;4.65;4.22;;;;;;;10.95;38.79;99164.09;5028120;28;20080;-70
2022/02/09 08:56:13;;;;;;;5.25;4.18;;;;;;;10.35;39.27;99158.53;5027542;28;20136;-70
2022/02/09 08:58:40;;;;;;;4.28;3.83;;;;;;;9.52;40.96;99173.44;5010310;28;20157;-69
2022/02/09 09:01:11;;;;;;;4.50;4.10;;;;;;;8.82;42.61;99175.91;5009725;28;20050;-70
2022/02/09 09:03:50;;;;;;;4.60;4.20;;;;;;;8.26;43.74;99184.31;5028005;28;20053;-68
2022/02/09 09:06:21;;;;;;;5.00;4.00;;;;;;;-142.02;100.00;61695.09;5028972;28;20045;-70
2022/02/09 10:03:10;;;;;;;1.80;1.77;;;;;;;-142.02;100.00;61695.09;4982530;28;20050;-69
2022/02/09 10:34:00;;;;;;;1.80;1.70;;;;;;;-142.02;100.00;61695.09;4991715;28;20050;-69
2022/02/09 10:36:26;;;;;;;2.78;2.53;;;;;;;-142.02;100.00;61695.09;4992848;28;20506;-70
2022/02/09 10:39:08;;;;;;;3.15;2.92;;;;;;;-142.02;100.00;61695.09;5012076;28;20054;-69
2022/02/09 10:41:41;;;;;;;2.22;2.03;;;;;;;-142.02;100.00;61695.09;4994816;28;20046;-69
2022/02/09 10:44:13;;;;;;;3.25;2.83;;;;;;;-142.02;100.00;61695.09;5006094;28;20077;-69
2022/02/09 10:46:52;;;;;;;4.25;3.35;;;;;;;-142.02;100.00;61695.09;4996454;28;20045;-69
2022/02/09 10:49:21;;;;;;;3.42;2.78;;;;;;;-142.02;100.00;61695.09;4996004;28;20065;-69
2022/02/09 10:54:18;;;;;;;3.17;2.95;;;;;;;-142.02;100.00;61695.09;4989598;28;20671;-69
2022/02/09 10:56:52;;;;;;;3.63;2.35;;;;;;;-142.02;100.00;61695.09;4991033;28;20054;-70
2022/02/09 10:59:22;;;;;;;3.85;2.53;;;;;;;-142.02;100.00;61695.09;5009449;28;20119;-70
2022/02/09 11:01:49;;;;;;;2.23;2.13;;;;;;;-142.02;100.00;61695.09;5008360;28;20065;-70
2022/02/09 11:04:16;;;;;;;2.38;2.17;;;;;;;-142.02;100.00;61695.09;4995650;28;20062;-70
2022/02/09 11:06:44;;;;;;;4.45;1.95;;;;;;;-142.02;100.00;61695.09;5009366;28;20044;-69
2022/02/09 11:09:12;;;;;;;2.67;2.45;;;;;;;-142.02;100.00;61695.09;4993481;28;20062;-69
2022/02/09 11:11:40;;;;;;;2.33;2.20;;;;;;;-142.02;100.00;61695.09;5010137;28;20054;-70
2022/02/09 11:14:17;;;;;;;2.10;2.00;;;;;;;-142.02;100.00;61695.09;4975836;28;20050;-70
2022/02/09 11:16:46;;;;;;;1.92;1.83;;;;;;;-142.02;100.00;61695.09;5010208;28;20050;-69
2022/02/09 11:19:14;;;;;;;2.25;2.15;;;;;;;-142.02;100.00;61695.09;4989358;28;20133;-70
2022/02/09 11:21:43;;;;;;;3.05;1.92;;;;;;;-142.02;100.00;61695.09;5010220;28;20120;-69
2022/02/09 11:24:23;;;;;;;2.17;2.08;;;;;;;-142.02;100.00;61695.09;5008881;28;20049;-69
2022/02/09 11:27:10;;;;;;;3.17;2.85;;;;;;;-142.02;100.00;61695.09;4976235;28;20064;-69
2022/02/09 11:32:32;;;;;;;3.08;2.00;;;;;;;-142.02;100.00;61695.09;5009286;28;20536;-69
2022/02/09 11:35:23;;;;;;;2.10;1.90;;;;;;;-142.02;100.00;61695.09;5010287;28;20053;-69
2022/02/09 11:43:22;;;;;;;2.03;1.85;;;;;;;-142.02;100.00;61695.09;5011179;28;20062;-70
2022/02/09 11:49:01;;;;;;;2.15;2.00;;;;;;;-142.02;100.00;61695.09;5008639;28;20049;-71
2022/02/09 12:00:56;;;;;;;2.65;2.45;;;;;;;-142.02;100.00;61695.09;5010080;28;20529;-70
2022/02/09 12:10:06;;;;;;;2.45;2.25;;;;;;;-142.02;100.00;61695.09;5001656;28;20480;-69
2022/02/09 12:12:15;;;;;;;2.47;2.38;;;;;;;-142.02;100.00;61695.09;4995237;28;20655;-68
2022/02/09 12:14:58;;;;;;;2.60;2.30;;;;;;;-142.02;100.00;61695.09;5007361;28;20060;-68
2022/02/09 12:17:33;;;;;;;5.60;3.10;;;;;;;-142.02;100.00;61695.09;4989989;28;20100;-69
2022/02/09 12:23:02;;;;;;;2.15;2.05;;;;;;;-142.02;100.00;61695.09;5008313;28;20053;-68
2022/02/09 12:25:38;;;;;;;3.20;2.50;;;;;;;-142.02;100.00;61695.09;5008612;28;20163;-69
2022/02/09 12:28:04;;;;;;;2.55;2.40;;;;;;;-142.02;100.00;61695.09;5009381;28;20066;-68
2022/02/09 12:30:30;;;;;;;2.60;2.40;;;;;;;-142.02;100.00;61695.09;5008730;28;20140;-68
2022/02/09 12:32:56;;;;;;;3.55;2.17;;;;;;;-142.02;100.00;61695.09;4990768;28;20208;-69
2022/02/09 12:35:22;;;;;;;2.90;2.70;;;;;;;-142.02;100.00;61695.09;5010091;28;20057;-68
2022/02/09 12:37:48;;;;;;;2.30;2.13;;;;;;;-142.02;100.00;61695.09;5009890;28;20088;-68
2022/02/09 12:40:18;;;;;;;2.80;2.60;;;;;;;-142.02;100.00;61695.09;5009096;28;20045;-68
2022/02/09 12:42:51;;;;;;;2.88;2.53;;;;;;;-142.02;100.00;61695.09;5009725;28;20122;-68
2022/02/09 12:45:21;;;;;;;3.03;2.83;;;;;;;-142.02;100.00;61695.09;4976400;28;20461;-69
2022/02/09 12:47:52;;;;;;;3.50;3.20;;;;;;;-142.02;100.00;61695.09;4975826;28;20073;-69
2022/02/09 12:50:33;;;;;;;2.53;2.33;;;;;;;-142.02;100.00;61695.09;5010166;28;20129;-69
2022/02/09 12:52:59;;;;;;;3.47;3.17;;;;;;;-142.02;100.00;61695.09;5010143;28;20053;-68
2022/02/09 12:55:29;;;;;;;4.10;3.03;;;;;;;-142.02;100.00;61695.09;4992523;28;20049;-68
2022/02/09 12:58:03;;;;;;;2.70;2.53;;;;;;;-142.02;100.00;61695.09;5009751;28;20054;-68
2022/02/09 13:00:43;;;;;;;3.58;3.05;;;;;;;-142.02;100.00;61695.09;4993006;28;20054;-69
2022/02/09 13:03:13;;;;;;;3.38;2.70;;;;;;;-142.02;100.00;61695.09;5009683;28;20105;-68
2022/02/09 13:05:44;;;;;;;3.20;2.72;;;;;;;-142.02;100.00;61695.09;5009424;28;20042;-69
2022/02/09 13:08:11;;;;;;;4.80;3.35;;;;;;;-142.02;100.00;61695.09;4992158;28;20057;-69
2022/02/09 13:10:38;;;;;;;3.00;2.80;;;;;;;-142.02;100.00;61695.09;5009364;28;20093;-68
2022/02/09 13:13:14;;;;;;;2.80;2.60;;;;;;;-142.02;100.00;61695.09;5009763;28;20495;-68
2022/02/09 13:15:52;;;;;;;2.92;2.70;;;;;;;-142.02;100.00;61695.09;5009681;28;20395;-68
2022/02/09 14:58:11;;;;;;;10.00;7.22;;;;;;;-142.02;100.00;61695.09;5010945;28;20481;-71
2022/02/09 15:08:37;;;;;;;8.32;7.38;;;;;;;-142.02;100.00;61695.09;5009607;28;20588;-70
2022/02/09 15:11:10;;;;;;;9.30;6.78;;;;;;;-142.02;100.00;61695.09;5005829;28;20056;-71
2022/02/09 15:16:26;;;;;;;7.88;7.07;;;;;;;-142.02;100.00;61695.09;5010410;28;20116;-69
2022/02/09 15:24:04;;;;;;;13.35;8.85;;;;;;;-142.02;100.00;61695.09;5012522;28;20088;-69
2022/02/09 15:26:30;;;;;;;14.48;7.32;;;;;;;-142.02;100.00;61695.09;5006074;28;20128;-69
2022/02/09 15:28:57;;;;;;;14.82;9.10;;;;;;;-142.02;100.00;61695.09;4989076;28;20057;-69
2022/02/09 15:31:39;;;;;;;15.55;10.43;;;;;;;-142.02;100.00;61695.09;4962698;28;20045;-70
2022/02/09 15:34:55;;;;;;;18.85;11.52;;;;;;;-142.02;100.00;61695.09;5027001;28;20425;-69
2022/02/09 15:39:28;;;;;;;6.40;5.50;;;;;;;-142.02;100.00;61695.09;5008705;28;20625;-69
2022/02/09 15:42:22;;;;;;;12.25;8.55;;;;;;;-142.02;100.00;61695.09;4991627;28;20623;-69
2022/02/09 16:09:39;;;;;;;12.38;7.95;;;;;;;-142.02;100.00;61695.09;5009226;28;20109;-70
2022/02/09 16:22:50;;;;;;;10.68;7.35;;;;;;;-142.02;100.00;61695.09;4974875;28;20046;-70
2022/02/09 16:25:24;;;;;;;8.10;7.38;;;;;;;-142.02;100.00;61695.09;4991644;28;20457;-70
2022/02/09 16:33:35;;;;;;;9.07;7.07;;;;;;;-142.02;100.00;61695.09;4994075;28;20517;-70
2022/02/09 16:46:53;;;;;;;10.02;7.82;;;;;;;-142.02;100.00;61695.09;4974454;28;20506;-69
2022/02/09 16:49:32;;;;;;;13.30;7.30;;;;;;;-142.02;100.00;61695.09;4988262;28;20058;-70
2022/02/09 16:52:23;;;;;;;13.10;8.07;;;;;;;-142.02;100.00;61695.09;4996328;28;20057;-69
2022/02/09 16:55:00;;;;;;;8.20;7.07;;;;;;;-142.02;100.00;61695.09;4988726;28;20132;-70
2022/02/09 17:21:18;;;;;;;11.55;8.60;;;;;;;-142.02;100.00;61695.09;4990275;28;20060;-70
2022/02/09 17:23:44;;;;;;;15.40;8.43;;;;;;;-142.02;100.00;61695.09;4989336;28;20050;-69
2022/02/09 17:26:12;;;;;;;6.63;5.90;;;;;;;-142.02;100.00;61695.09;4998486;28;20046;-70
2022/02/09 17:28:45;;;;;;;10.63;7.38;;;;;;;-142.02;100.00;61695.09;5012472;28;20197;-70
2022/02/09 17:36:23;;;;;;;8.05;7.25;;;;;;;-142.02;100.00;61695.09;5027185;28;20048;-70
2022/02/09 18:00:22;;;;;;;10.52;8.80;;;;;;;-142.02;100.00;61695.09;5012374;28;20053;-70
2022/02/09 18:02:50;;;;;;;12.35;9.43;;;;;;;-142.02;100.00;61695.09;4993672;28;20124;-70
2022/02/09 18:05:23;;;;;;;13.15;8.38;;;;;;;-142.02;100.00;61695.09;5009549;28;20095;-70
2022/02/09 18:07:55;;;;;;;13.55;8.88;;;;;;;-142.02;100.00;61695.09;4997171;28;20119;-71
2022/02/09 18:15:56;;;;;;;13.85;8.90;;;;;;;-142.02;100.00;61695.09;4992141;28;20502;-69
2022/02/09 18:29:27;;;;;;;17.40;11.48;;;;;;;-142.02;100.00;61695.09;5011614;28;20077;-67
2022/02/09 18:34:57;;;;;;;14.10;10.68;;;;;;;-142.02;100.00;61695.09;5003822;28;20050;-68
2022/02/09 18:42:54;;;;;;;14.20;8.95;;;;;;;-142.02;100.00;61695.09;5024943;28;20119;-68
2022/02/09 18:45:41;;;;;;;13.85;11.32;;;;;;;-142.02;100.00;61695.09;5011394;28;20137;-69
2022/02/09 19:02:01;;;;;;;8.15;7.07;;;;;;;-142.02;100.00;61695.09;5016993;28;20540;-67
2022/02/09 19:04:46;;;;;;;10.82;8.18;;;;;;;-142.02;100.00;61695.09;5028583;28;20049;-67
2022/02/09 19:07:39;;;;;;;10.20;8.68;;;;;;;-142.02;100.00;61695.09;5009404;28;20081;-68
2022/02/09 19:26:50;;;;;;;7.22;6.53;;;;;;;-142.02;100.00;61695.09;5008718;28;20046;-68
2022/02/09 19:31:49;;;;;;;6.53;6.03;;;;;;;-142.02;100.00;61695.09;5009534;28;20046;-69
2022/02/09 19:48:07;;;;;;;7.45;6.75;;;;;;;-142.02;100.00;61695.09;5008606;28;20506;-69
2022/02/09 19:56:36;;;;;;;6.97;6.32;;;;;;;-142.02;100.00;61695.09;4991434;28;20061;-70
2022/02/09 19:58:53;;;;;;;5.70;4.75;;;;;;;-142.02;100.00;61695.09;4986116;28;20577;-70
2022/02/09 20:01:21;;;;;;;5.55;5.15;;;;;;;-142.02;100.00;61695.09;4999464;28;20096;-70
2022/02/09 20:03:47;;;;;;;6.07;5.57;;;;;;;-142.02;100.00;61695.09;5009154;28;20046;-70
2022/02/09 20:06:13;;;;;;;2.70;2.58;;;;;;;-142.02;100.00;61695.09;5009342;28;20502;-69
2022/02/09 20:08:39;;;;;;;4.38;4.07;;;;;;;-142.02;100.00;61695.09;5008034;28;20054;-69
2022/02/09 20:11:07;;;;;;;3.60;3.38;;;;;;;-142.02;100.00;61695.09;4993445;28;20053;-69
2022/02/09 20:13:33;;;;;;;4.72;4.38;;;;;;;-142.02;100.00;61695.09;4996337;28;20048;-69
2022/02/09 20:15:59;;;;;;;6.85;6.22;;;;;;;-142.02;100.00;61695.09;4983059;28;20046;-68
2022/02/09 20:18:26;;;;;;;4.32;4.03;;;;;;;-142.02;100.00;61695.09;5004201;28;20080;-69
2022/02/09 20:20:55;;;;;;;5.32;4.72;;;;;;;-142.02;100.00;61695.09;4991081;28;20123;-69
2022/02/09 20:23:22;;;;;;;5.45;4.85;;;;;;;-142.02;100.00;61695.09;4994907;28;20458;-69
2022/02/09 20:25:47;;;;;;;7.60;6.90;;;;;;;-142.02;100.00;61695.09;4992337;28;20050;-68
2022/02/09 20:28:14;;;;;;;6.93;6.43;;;;;;;-142.02;100.00;61695.09;4975873;28;20585;-68
2022/02/09 20:30:45;;;;;;;6.97;5.70;;;;;;;-142.02;100.00;61695.09;4992016;28;20438;-68
2022/02/09 20:33:16;;;;;;;6.70;6.13;;;;;;;-142.02;100.00;61695.09;5028440;28;20119;-69
2022/02/09 20:35:42;;;;;;;6.97;6.28;;;;;;;-142.02;100.00;61695.09;5029240;28;20079;-69
2022/02/09 20:38:17;;;;;;;7.45;6.75;;;;;;;-142.02;100.00;61695.09;5011648;28;20068;-68
2022/02/09 20:40:49;;;;;;;5.22;4.88;;;;;;;-142.02;100.00;61695.09;5011161;28;20049;-70
2022/02/09 20:43:18;;;;;;;4.95;4.50;;;;;;;-142.02;100.00;61695.09;5012710;28;20060;-69
2022/02/09 20:45:50;;;;;;;4.25;3.95;;;;;;;-142.02;100.00;61695.09;4994948;28;20107;-69
2022/02/09 20:48:24;;;;;;;6.53;5.93;;;;;;;-142.02;100.00;61695.09;5025559;28;20057;-70
2022/02/09 20:50:50;;;;;;;5.88;5.47;;;;;;;-142.02;100.00;61695.09;5008493;28;20060;-69
2022/02/09 20:53:18;;;;;;;7.53;6.10;;;;;;;-142.02;100.00;61695.09;5008650;28;20461;-69
2022/02/09 20:55:44;;;;;;;9.00;7.68;;;;;;;-142.02;100.00;61695.09;4991140;28;20052;-69
2022/02/09 20:58:10;;;;;;;6.85;6.25;;;;;;;-142.02;100.00;61695.09;4986808;28;20201;-68
2022/02/09 21:00:43;;;;;;;8.15;7.45;;;;;;;-142.02;100.00;61695.09;4997396;28;20054;-70
2022/02/09 22:01:34;;;;;;;9.65;7.88;;;;;;;-142.02;100.00;61695.09;5000091;28;20045;-69
2022/02/09 22:20:22;;;;;;;6.57;6.07;;;;;;;-142.02;100.00;61695.09;4990042;28;20054;-71
2022/02/09 22:27:49;;;;;;;6.95;6.22;;;;;;;-142.02;100.00;61695.09;5003171;28;20632;-70
2022/02/09 22:56:50;;;;;;;5.55;5.05;;;;;;;-142.02;100.00;61695.09;4997029;28;20054;-69
2022/02/09 22:59:44;;;;;;;6.18;5.60;;;;;;;-142.02;100.00;61695.09;4947526;28;20153;-69
2022/02/09 23:02:09;;;;;;;5.93;5.43;;;;;;;-142.02;100.00;61695.09;4961410;28;20100;-68
2022/02/09 23:04:55;;;;;;;5.50;5.00;;;;;;;-142.02;100.00;61695.09;4984322;28;20060;-70
2022/02/09 23:07:33;;;;;;;6.43;4.53;;;;;;;-142.02;100.00;61695.09;5002746;28;20050;-69
2022/02/09 23:12:42;;;;;;;5.47;4.93;;;;;;;-142.02;100.00;61695.09;5017694;28;20045;-69
